Time;durP1;ratioP1;P1;durP2;ratioP2;P2;SDS_P1;SDS_P2;PMS_P1;PMS_P2;Temp;Humidity;BMP_temperature;BMP_pressure;BME280_temperature;BME280_humidity;BME280_pressure;Samples;Min_cycle;Max_cycle;Signal;HPM_P1;HPM_P2
2021/08/12 00:02:21;;;;;;;10.30;5.87;;;;;;;14.38;100.00;77061.53;5061343;28;20485;-67
2021/08/12 00:04:47;;;;;;;12.90;6.63;;;;;;;14.32;100.00;75715.31;5061250;28;20070;-67
2021/08/12 00:07:13;;;;;;;16.70;6.63;;;;;;;14.27;100.00;79723.22;5061821;28;20033;-67
2021/08/12 00:09:38;;;;;;;10.67;5.80;;;;;;;14.19;100.00;81385.06;5058062;28;20042;-67
2021/08/12 00:12:05;;;;;;;11.17;6.30;;;;;;;14.13;100.00;84390.78;5050630;28;20290;-67
2021/08/12 00:14:30;;;;;;;12.63;6.40;;;;;;;14.06;100.00;86392.72;5057390;28;20181;-67
2021/08/12 00:16:56;;;;;;;19.87;6.53;;;;;;;13.99;100.00;86717.44;5061974;28;20182;-67
2021/08/12 00:19:21;;;;;;;11.70;6.60;;;;;;;13.96;100.00;89394.75;5055790;28;20044;-67
2021/08/12 00:21:48;;;;;;;14.50;7.67;;;;;;;13.92;100.00;91737.34;5051351;28;20038;-67
2021/08/12 00:24:14;;;;;;;12.67;6.77;;;;;;;13.91;100.00;92742.88;5058863;28;20251;-67
2021/08/12 00:26:40;;;;;;;14.97;7.30;;;;;;;13.92;100.00;95096.38;5061508;28;20477;-67
2021/08/12 00:29:06;;;;;;;13.70;7.33;;;;;;;13.95;100.00;94764.53;5060215;28;20029;-67
2021/08/12 00:31:32;;;;;;;13.83;7.00;;;;;;;13.93;100.00;94426.16;5061535;28;20069;-67
2021/08/12 00:33:58;;;;;;;15.80;8.57;;;;;;;13.95;100.00;95101.34;5063514;28;20051;-67
2021/08/12 00:36:23;;;;;;;17.87;7.73;;;;;;;13.90;100.00;96437.28;5061167;28;20461;-67
2021/08/12 00:38:49;;;;;;;12.87;8.00;;;;;;;13.93;100.00;100478.09;5052984;28;20036;-67
2021/08/12 00:41:14;;;;;;;19.13;8.53;;;;;;;13.92;100.00;99130.56;5063849;28;20043;-67
2021/08/12 00:43:40;;;;;;;19.47;9.40;;;;;;;14.02;100.00;95448.91;5057354;28;20609;-67
2021/08/12 00:46:05;;;;;;;14.90;8.27;;;;;;;14.08;100.00;84719.97;5060863;28;20032;-67
2021/08/12 00:48:31;;;;;;;15.00;8.03;;;;;;;14.08;100.00;76353.44;5054861;28;20067;-67
2021/08/12 00:50:57;;;;;;;15.27;8.17;;;;;;;14.05;100.00;76349.44;5061153;28;20063;-67
2021/08/12 00:53:22;;;;;;;15.17;7.50;;;;;;;13.88;100.00;68650.19;5058362;28;20549;-67
2021/08/12 00:55:48;;;;;;;14.60;7.87;;;;;;;13.87;100.00;71650.19;5060557;28;20107;-67
2021/08/12 00:58:15;;;;;;;12.50;7.40;;;;;;;13.89;100.00;76328.16;5060526;28;20120;-67
2021/08/12 01:00:41;;;;;;;13.83;7.27;;;;;;;13.89;100.00;76328.16;5060864;28;20093;-67
2021/08/12 01:03:09;;;;;;;14.10;7.67;;;;;;;13.79;100.00;77651.50;5072153;22;20106;-67
2021/08/12 01:05:42;;;;;;;13.17;7.30;;;;;;;13.73;100.00;80986.91;5077665;28;20067;-66
2021/08/12 01:08:48;;;;;;;14.47;7.07;;;;;;;13.67;100.00;80978.47;5077774;28;20334;-66
2021/08/12 01:11:43;;;;;;;13.57;6.97;;;;;;;13.68;100.00;81648.91;5017564;28;20554;-66
2021/08/12 01:14:23;;;;;;;15.73;7.90;;;;;;;13.63;100.00;86328.31;5015227;28;20124;-66
2021/08/12 01:16:59;;;;;;;15.73;8.10;;;;;;;13.67;100.00;87339.44;5016298;28;20045;-66
2021/08/12 01:20:26;;;;;;;17.40;8.07;;;;;;;13.73;100.00;86343.28;5017019;28;20104;-66
2021/08/12 01:22:54;;;;;;;14.80;7.73;;;;;;;13.74;100.00;78981.81;4961407;28;20045;-66
2021/08/12 01:25:28;;;;;;;16.63;8.23;;;;;;;13.85;100.00;75654.03;4963983;28;20064;-66
2021/08/12 01:27:58;;;;;;;16.33;8.50;;;;;;;13.97;100.00;70328.63;4965284;28;20141;-66
2021/08/12 01:30:30;;;;;;;17.87;8.60;;;;;;;14.05;100.00;65669.91;4965866;28;20057;-66
2021/08/12 01:33:21;;;;;;;19.40;9.48;;;;;;;14.11;100.00;61014.31;4964790;28;20050;-66
2021/08/12 01:35:49;;;;;;;16.37;8.27;;;;;;;14.15;100.00;55698.59;4970152;28;20105;-66
2021/08/12 01:38:21;;;;;;;15.63;8.57;;;;;;;14.20;100.00;54041.97;4962222;28;20065;-66
2021/08/12 01:40:50;;;;;;;21.97;9.13;;;;;;;14.21;100.00;49728.28;4957886;28;20187;-66
2021/08/12 01:43:18;;;;;;;15.87;7.73;;;;;;;14.23;100.00;46745.38;4960939;28;20034;-66
2021/08/12 01:45:55;;;;;;;17.67;8.00;;;;;;;14.22;100.00;47076.41;4952032;28;20039;-67
2021/08/12 01:48:24;;;;;;;14.80;7.87;;;;;;;14.22;100.00;51719.66;5011915;28;20032;-67
2021/08/12 01:50:51;;;;;;;16.93;8.47;;;;;;;14.18;100.00;51384.09;5028158;28;20025;-66
2021/08/12 01:53:18;;;;;;;17.60;8.47;;;;;;;14.18;100.00;52048.34;5039487;28;20043;-66
2021/08/12 01:55:44;;;;;;;16.87;8.50;;;;;;;14.15;100.00;53373.50;5078965;28;20035;-66
2021/08/12 01:58:15;;;;;;;15.17;8.43;;;;;;;14.15;100.00;53373.03;5077470;28;20036;-67
2021/08/12 02:00:47;;;;;;;16.93;7.87;;;;;;;14.15;100.00;54369.28;5073432;28;20164;-66
2021/08/12 02:03:17;;;;;;;15.95;8.05;;;;;;;14.15;100.00;55033.63;5077955;28;20130;-67
2021/08/12 02:05:48;;;;;;;19.17;8.63;;;;;;;14.15;100.00;56030.88;5071838;28;20527;-66
2021/08/12 02:08:14;;;;;;;14.73;8.40;;;;;;;14.10;100.00;55028.78;5079474;28;20195;-66
2021/08/12 02:10:43;;;;;;;19.57;9.23;;;;;;;14.07;100.00;56355.78;5075825;28;20071;-66
2021/08/12 02:13:09;;;;;;;15.63;8.47;;;;;;;14.02;100.00;55354.13;5064476;28;20024;-66
2021/08/12 02:15:35;;;;;;;19.33;8.20;;;;;;;13.95;100.00;55014.72;5077512;28;20748;-66
2021/08/12 02:18:00;;;;;;;17.13;8.33;;;;;;;13.95;100.00;59335.22;5077234;28;20035;-66
2021/08/12 02:20:26;;;;;;;17.30;9.60;;;;;;;13.96;100.00;60001.38;5077720;28;20530;-66
2021/08/12 02:22:58;;;;;;;18.07;9.40;;;;;;;13.94;100.00;59666.72;5078447;28;20122;-66
2021/08/12 02:25:51;;;;;;;17.45;8.50;;;;;;;13.92;100.00;59332.09;5078487;28;20028;-66
2021/08/12 02:28:17;;;;;;;18.03;8.93;;;;;;;13.92;100.00;58001.81;4976679;28;20379;-66
2021/08/12 02:30:46;;;;;;;18.50;8.73;;;;;;;13.92;100.00;57337.63;4976721;28;20038;-66
2021/08/12 02:33:19;;;;;;;17.20;9.33;;;;;;;13.99;100.00;58341.91;4977005;28;20022;-66
2021/08/12 02:35:46;;;;;;;19.87;9.20;;;;;;;14.03;100.00;57348.25;4976934;28;20077;-66
2021/08/12 02:38:14;;;;;;;17.23;9.23;;;;;;;14.02;100.00;55354.13;4976913;28;20113;-66
2021/08/12 02:40:40;;;;;;;15.70;8.77;;;;;;;14.01;100.00;52365.00;4977034;28;20026;-66
2021/08/12 02:43:08;;;;;;;15.40;8.53;;;;;;;13.96;100.00;53024.13;4976916;28;20027;-66
2021/08/12 02:45:35;;;;;;;18.67;9.67;;;;;;;13.89;100.00;54012.84;4976234;28;20030;-66
2021/08/12 02:48:02;;;;;;;15.83;9.37;;;;;;;13.87;100.00;60656.50;4977216;28;20426;-66
2021/08/12 02:50:29;;;;;;;17.90;9.80;;;;;;;13.88;100.00;67983.47;4976910;28;20053;-66
2021/08/12 02:52:55;;;;;;;19.10;9.83;;;;;;;13.90;100.00;63987.53;4976824;28;20252;-66
2021/08/12 02:55:21;;;;;;;16.70;9.23;;;;;;;13.88;100.00;60325.50;4977008;28;20030;-66
2021/08/12 02:57:47;;;;;;;18.47;10.17;;;;;;;13.85;100.00;58327.03;4976807;28;20030;-66
2021/08/12 03:00:14;;;;;;;19.30;9.60;;;;;;;13.85;100.00;64315.44;4977119;28;20040;-67
2021/08/12 03:02:46;;;;;;;19.67;9.67;;;;;;;13.80;100.00;72643.09;4987225;28;20275;-66
2021/08/12 03:05:14;;;;;;;16.02;8.82;;;;;;;13.75;100.00;65969.06;5078707;28;20131;-66
2021/08/12 03:07:43;;;;;;;19.93;9.30;;;;;;;13.62;100.00;60297.94;5079061;28;20171;-66
2021/08/12 03:10:12;;;;;;;20.53;9.77;;;;;;;13.58;100.00;63619.47;5079929;28;20042;-66
2021/08/12 03:12:39;;;;;;;19.07;10.37;;;;;;;13.56;100.00;65281.28;5082193;28;20290;-66
2021/08/12 03:15:05;;;;;;;19.60;9.97;;;;;;;13.57;100.00;65615.31;5079465;28;20260;-66
2021/08/12 03:17:31;;;;;;;19.57;9.63;;;;;;;13.67;100.00;67958.50;5081221;28;20042;-66
2021/08/12 03:19:56;;;;;;;17.60;9.67;;;;;;;13.74;100.00;63970.16;5081687;28;20024;-66
2021/08/12 03:22:24;;;;;;;18.77;9.43;;;;;;;13.73;100.00;59644.69;5081696;28;20266;-67
2021/08/12 03:24:52;;;;;;;15.37;8.70;;;;;;;13.71;100.00;58977.81;5082816;28;20050;-67
2021/08/12 03:27:18;;;;;;;20.47;10.10;;;;;;;13.78;100.00;66971.91;5082372;28;20510;-66
2021/08/12 03:29:45;;;;;;;24.30;10.53;;;;;;;13.85;100.00;75319.97;5075994;28;20278;-67
2021/08/12 03:32:11;;;;;;;22.47;10.30;;;;;;;13.84;100.00;75986.78;5082803;28;20044;-66
2021/08/12 03:34:37;;;;;;;21.87;10.90;;;;;;;13.79;100.00;66973.06;5075566;28;20107;-67
2021/08/12 03:37:04;;;;;;;21.93;10.57;;;;;;;13.79;100.00;61646.88;5083041;28;20024;-66
2021/08/12 03:39:31;;;;;;;19.97;10.07;;;;;;;13.77;100.00;62309.53;5075411;28;20460;-66
2021/08/12 03:41:56;;;;;;;21.90;10.93;;;;;;;13.74;100.00;58316.75;5082622;28;20103;-66
2021/08/12 03:44:22;;;;;;;19.53;10.73;;;;;;;13.71;100.00;57980.91;5075538;28;20149;-66
2021/08/12 03:46:47;;;;;;;18.90;9.40;;;;;;;13.65;100.00;57643.06;5082862;28;20035;-66
2021/08/12 03:49:13;;;;;;;20.37;9.40;;;;;;;13.51;100.00;56964.19;5076362;28;20020;-68
2021/08/12 03:51:38;;;;;;;20.03;9.03;;;;;;;13.36;100.00;59606.94;5073493;28;20416;-67
2021/08/12 03:54:05;;;;;;;17.33;8.67;;;;;;;13.27;100.00;66580.47;5082086;28;20065;-65
2021/08/12 03:56:30;;;;;;;24.40;10.30;;;;;;;13.27;100.00;72910.09;5075247;28;20036;-65
2021/08/12 03:58:56;;;;;;;20.73;10.47;;;;;;;13.26;100.00;73910.03;5079034;28;20035;-65
2021/08/12 04:01:21;;;;;;;23.23;10.13;;;;;;;13.19;100.00;69567.81;5076053;28;20020;-65
2021/08/12 04:03:47;;;;;;;24.27;11.07;;;;;;;13.16;100.00;67899.09;5080763;28;20028;-65
2021/08/12 04:06:12;;;;;;;21.97;10.00;;;;;;;13.13;100.00;67229.75;5082181;28;20278;-65
2021/08/12 04:08:38;;;;;;;21.73;10.60;;;;;;;13.10;100.00;69556.88;5081473;28;20088;-65
2021/08/12 04:11:03;;;;;;;20.30;10.67;;;;;;;13.11;100.00;71223.81;5081862;28;20043;-65
2021/08/12 04:13:29;;;;;;;19.93;9.90;;;;;;;13.06;100.00;68553.63;5077871;28;20043;-65
2021/08/12 04:15:55;;;;;;;23.33;11.87;;;;;;;13.15;100.00;70562.34;5080541;28;20147;-65
2021/08/12 04:18:21;;;;;;;26.33;11.83;;;;;;;13.25;100.00;69575.13;5081920;28;20258;-65
2021/08/12 04:20:46;;;;;;;24.03;11.87;;;;;;;13.42;100.00;65599.25;5078502;28;20035;-65
2021/08/12 04:23:13;;;;;;;25.57;12.10;;;;;;;13.52;100.00;61617.13;5081674;28;20043;-65
2021/08/12 04:25:41;;;;;;;22.47;10.93;;;;;;;13.59;100.00;53984.69;5077548;28;20040;-65
2021/08/12 04:28:07;;;;;;;24.50;11.70;;;;;;;13.68;100.00;50676.38;5081714;28;20039;-65
2021/08/12 04:30:32;;;;;;;24.07;11.13;;;;;;;13.83;100.00;39764.47;5079628;28;20059;-65
2021/08/12 04:32:58;;;;;;;22.83;11.70;;;;;;;13.94;100.00;34156.94;5074620;28;20078;-65
2021/08/12 04:35:23;;;;;;;21.53;10.83;;;;;;;14.05;100.00;30204.91;5081178;28;20174;-65
2021/08/12 04:37:49;;;;;;;19.30;10.17;;;;;;;14.15;100.00;21976.03;5081547;28;20024;-65
2021/08/12 04:40:19;;;;;;;18.70;10.23;;;;;;;14.28;100.00;14094.44;5080261;28;20376;-65
2021/08/12 04:42:47;;;;;;;18.97;10.00;;;;;;;14.36;100.00;24618.44;5081235;28;20068;-65
2021/08/12 04:45:14;;;;;;;18.83;9.20;;;;;;;14.52;100.00;35183.69;5080216;28;20621;-65
2021/08/12 04:47:39;;;;;;;18.87;9.67;;;;;;;14.59;100.00;11477.16;5069663;28;20027;-65
2021/08/12 04:50:06;;;;;;;19.43;9.00;;;;;;;14.62;100.00;-5185.13;5081044;28;20096;-65
2021/08/12 04:52:32;;;;;;;20.30;9.10;;;;;;;14.64;100.00;-641.53;5069138;28;20080;-65
2021/08/12 04:54:58;;;;;;;21.17;9.50;;;;;;;14.58;100.00;12133.25;5078285;28;20538;-65
2021/08/12 04:57:23;;;;;;;18.43;8.10;;;;;;;14.68;100.00;-641.34;5078651;28;20521;-66
2021/08/12 04:59:49;;;;;;;17.40;7.70;;;;;;;14.65;100.00;-9345.66;5080707;28;20511;-66
2021/08/12 05:02:15;;;;;;;18.07;7.97;;;;;;;14.60;100.00;-2306.63;5079434;28;20372;-66
2021/08/12 05:04:40;;;;;;;15.03;8.10;;;;;;;14.56;100.00;4920.44;5071779;28;20081;-65
2021/08/12 05:07:06;;;;;;;14.13;7.80;;;;;;;14.61;100.00;2302.22;5074431;28;20032;-65
2021/08/12 05:09:31;;;;;;;16.63;8.17;;;;;;;14.62;100.00;-2301.47;5080502;28;20027;-65
2021/08/12 05:11:58;;;;;;;13.73;7.60;;;;;;;14.59;100.00;10164.97;5076362;28;20255;-66
2021/08/12 05:14:24;;;;;;;16.30;7.07;;;;;;;14.84;100.00;7546.28;5080247;28;20495;-66
2021/08/12 05:16:49;;;;;;;15.67;7.97;;;;;;;15.24;100.00;-9014.50;5079244;28;20100;-66
2021/08/12 05:19:15;;;;;;;15.53;7.70;;;;;;;16.09;100.00;-19584.56;5080439;28;20032;-66
2021/08/12 05:21:40;;;;;;;17.90;7.93;;;;;;;17.03;100.00;-19608.59;5075179;28;20031;-66
2021/08/12 05:24:06;;;;;;;14.97;8.63;;;;;;;17.47;100.00;-19620.06;5080044;28;20115;-66
2021/08/12 05:26:31;;;;;;;14.70;8.33;;;;;;;17.49;100.00;-19620.59;5077120;28;20191;-66
2021/08/12 05:28:56;;;;;;;17.97;7.93;;;;;;;17.28;100.00;-19615.25;5080308;28;20028;-66
2021/08/12 05:31:22;;;;;;;13.20;8.00;;;;;;;17.20;100.00;-19613.03;5075941;28;20024;-66
2021/08/12 05:33:48;;;;;;;16.70;8.47;;;;;;;17.20;100.00;-19613.16;5078937;28;20402;-66
2021/08/12 05:36:13;;;;;;;14.13;8.00;;;;;;;17.17;100.00;-19612.25;5079520;28;20024;-66
2021/08/12 05:38:39;;;;;;;15.93;8.10;;;;;;;17.12;100.00;-19610.94;5078331;28;20030;-66
2021/08/12 05:41:04;;;;;;;15.23;8.67;;;;;;;17.03;100.00;-19608.72;5074479;28;20027;-66
2021/08/12 05:43:30;;;;;;;14.67;8.37;;;;;;;17.05;100.00;-19609.13;5076377;28;20024;-66
2021/08/12 05:45:55;;;;;;;15.77;8.30;;;;;;;17.32;100.00;-19616.16;5080185;28;20044;-66
2021/08/12 05:48:21;;;;;;;13.67;7.83;;;;;;;17.83;100.00;-19629.34;5078700;28;20035;-66
2021/08/12 05:50:48;;;;;;;14.40;7.77;;;;;;;18.06;100.00;-19635.22;5079696;28;20119;-66
2021/08/12 05:53:19;;;;;;;12.17;6.97;;;;;;;18.35;100.00;-19642.66;5079737;28;20052;-66
2021/08/12 05:55:44;;;;;;;14.03;7.93;;;;;;;17.93;100.00;-19631.69;5079755;28;20031;-66
2021/08/12 05:58:10;;;;;;;13.03;8.07;;;;;;;17.91;100.00;-19631.31;5079820;28;20402;-66
2021/08/12 06:00:36;;;;;;;13.47;7.73;;;;;;;17.89;100.00;-19630.78;5080097;28;20093;-65
2021/08/12 06:03:09;;;;;;;18.03;8.47;;;;;;;17.83;100.00;-19629.22;5079589;28;20020;-66
2021/08/12 06:05:35;;;;;;;13.97;8.43;;;;;;;17.95;100.00;-19632.34;5074532;28;20198;-66
2021/08/12 06:08:02;;;;;;;15.57;8.10;;;;;;;18.03;100.00;-19634.28;5079853;28;20049;-66
2021/08/12 06:10:28;;;;;;;16.97;7.93;;;;;;;18.24;100.00;-19639.66;5079428;28;20273;-66
2021/08/12 06:12:55;;;;;;;17.10;7.93;;;;;;;18.28;100.00;-19640.81;5079850;28;20035;-66
2021/08/12 06:15:21;;;;;;;13.05;7.30;;;;;;;18.56;100.00;-19647.84;5079261;28;20053;-66
2021/08/12 06:17:46;;;;;;;12.70;8.07;;;;;;;18.52;100.00;-19646.94;5079733;28;20049;-66
2021/08/12 06:20:12;;;;;;;12.93;7.90;;;;;;;18.52;100.00;-19646.94;5079076;28;20031;-66
2021/08/12 06:22:37;;;;;;;12.67;7.97;;;;;;;18.43;100.00;-19644.72;5079894;28;20024;-66
2021/08/12 06:25:04;;;;;;;12.85;7.63;;;;;;;18.65;100.00;-19650.34;5079091;28;20028;-66
2021/08/12 06:27:29;;;;;;;13.10;7.88;;;;;;;18.63;100.00;-19649.81;5079573;28;20241;-66
2021/08/12 06:29:55;;;;;;;14.02;7.30;;;;;;;18.54;100.00;-19647.34;5079243;28;20496;-66
2021/08/12 06:32:21;;;;;;;15.07;8.57;;;;;;;18.59;100.00;-19648.78;5079238;28;20028;-66
2021/08/12 06:34:46;;;;;;;14.65;7.78;;;;;;;18.67;100.00;-19650.84;5078870;28;20016;-66
2021/08/12 06:37:12;;;;;;;17.83;7.88;;;;;;;19.06;100.00;-19660.75;5082845;28;20242;-66
2021/08/12 06:39:37;;;;;;;14.05;8.35;;;;;;;19.20;100.00;-19664.41;5083599;28;20068;-66
2021/08/12 06:42:04;;;;;;;14.73;7.82;;;;;;;19.62;100.00;-19675.06;5086052;28;20121;-66
2021/08/12 06:44:30;;;;;;;11.93;7.20;;;;;;;19.80;100.00;-19679.75;5085549;28;20035;-66
2021/08/12 06:46:55;;;;;;;13.95;8.13;;;;;;;19.68;100.00;-19676.50;5085604;28;20391;-66
2021/08/12 06:49:21;;;;;;;13.02;7.90;;;;;;;19.69;100.00;-19676.78;5085714;28;20256;-66
2021/08/12 06:51:46;;;;;;;14.80;8.27;;;;;;;19.77;100.00;-19678.97;5085912;28;20024;-66
2021/08/12 06:54:12;;;;;;;11.90;7.43;;;;;;;19.69;100.00;-19676.91;5085724;28;20084;-66
2021/08/12 06:56:38;;;;;;;13.57;6.93;;;;;;;19.45;100.00;-19670.66;5085568;28;20157;-66
2021/08/12 06:59:03;;;;;;;13.60;7.55;;;;;;;19.94;100.00;-19683.13;5077148;28;20089;-66
2021/08/12 07:01:29;;;;;;;11.82;7.30;;;;;;;19.79;100.00;-19679.50;5079033;28;20710;-66
2021/08/12 07:03:55;;;;;;;12.88;7.32;;;;;;;20.10;100.00;-19687.31;5085560;28;20040;-66
2021/08/12 07:06:20;;;;;;;13.30;7.88;;;;;;;20.17;100.00;-19689.25;5085350;28;20306;-66
2021/08/12 07:08:46;;;;;;;14.70;7.72;;;;;;;20.15;100.00;-19688.72;5085786;28;20268;-66
2021/08/12 07:11:11;;;;;;;14.18;7.72;;;;;;;20.68;100.00;-19702.13;5086013;28;20024;-66
2021/08/12 07:13:37;;;;;;;12.18;7.25;;;;;;;21.00;100.00;-19710.44;5085741;28;20483;-66
2021/08/12 07:16:03;;;;;;;13.02;7.30;;;;;;;21.60;100.00;-19725.75;5086064;28;20020;-67
2021/08/12 07:18:28;;;;;;;10.73;6.72;;;;;;;22.00;100.00;-19735.88;5085375;28;20495;-67
2021/08/12 07:20:54;;;;;;;12.45;6.55;;;;;;;22.68;100.00;-19753.13;5086048;28;20039;-68
2021/08/12 07:23:20;;;;;;;10.65;6.70;;;;;;;22.81;100.00;-19756.63;5085383;28;20024;-69
2021/08/12 07:25:45;;;;;;;14.07;6.55;;;;;;;22.87;100.00;-19757.91;5085768;28;20103;-68
2021/08/12 07:28:12;;;;;;;13.95;6.28;;;;;;;22.65;100.00;-19752.34;5085119;28;20089;-68
2021/08/12 07:30:38;;;;;;;10.48;6.20;;;;;;;23.20;100.00;-19766.47;5085768;28;20084;-69
2021/08/12 07:33:04;;;;;;;10.10;6.07;;;;;;;24.25;100.00;-19793.25;5085451;28;20112;-69
2021/08/12 07:35:29;;;;;;;9.60;5.78;;;;;;;24.81;99.57;-19807.47;5085450;28;20039;-68
2021/08/12 07:37:55;;;;;;;11.93;6.65;;;;;;;24.75;95.89;-19805.78;5085444;28;20216;-68
2021/08/12 07:40:21;;;;;;;11.05;6.60;;;;;;;24.96;94.56;-19811.22;5085408;28;20484;-68
2021/08/12 07:42:46;;;;;;;10.75;6.20;;;;;;;25.46;91.21;-19823.75;5085688;28;20055;-68
2021/08/12 07:45:12;;;;;;;10.45;6.00;;;;;;;24.54;96.01;-19800.50;5085478;28;20078;-68
2021/08/12 07:47:37;;;;;;;10.75;6.25;;;;;;;24.80;96.67;-19807.09;5084677;28;20027;-68
2021/08/12 07:50:09;;;;;;;10.45;6.25;;;;;;;23.98;100.00;-19786.41;5081567;28;20031;-68
2021/08/12 07:52:38;;;;;;;11.95;6.22;;;;;;;22.56;100.00;-19750.16;5082489;28;20024;-67
2021/08/12 07:55:04;;;;;;;9.95;6.47;;;;;;;21.96;100.00;-19734.84;5081956;28;20032;-67
2021/08/12 07:57:30;;;;;;;12.95;6.57;;;;;;;21.72;100.00;-19728.75;5082433;28;20031;-67
2021/08/12 07:59:55;;;;;;;10.90;6.53;;;;;;;22.83;100.00;-19756.88;5081918;28;20120;-68
2021/08/12 08:02:21;;;;;;;11.18;6.45;;;;;;;23.62;100.00;-19777.09;5081996;28;20241;-68
2021/08/12 08:04:47;;;;;;;11.38;6.53;;;;;;;23.22;100.00;-19766.97;5081680;28;20031;-68
2021/08/12 08:07:13;;;;;;;14.55;6.57;;;;;;;24.83;100.00;-19807.84;5081826;28;20067;-68
2021/08/12 08:09:39;;;;;;;9.77;5.93;;;;;;;26.03;90.95;-19838.31;5081399;28;20028;-69
2021/08/12 08:12:05;;;;;;;11.85;6.30;;;;;;;27.87;74.10;-19884.94;5082141;28;20024;-70
2021/08/12 08:14:31;;;;;;;9.57;5.65;;;;;;;27.28;74.03;-19870.03;5081542;28;20265;-70
2021/08/12 08:16:56;;;;;;;12.15;5.82;;;;;;;27.83;68.82;-19883.91;5068406;28;20122;-71
2021/08/12 08:19:22;;;;;;;9.65;5.55;;;;;;;29.12;68.67;-19916.44;5081237;28;20604;-71
2021/08/12 08:21:47;;;;;;;9.23;5.72;;;;;;;29.54;64.36;-19927.09;5081650;28;20052;-70
2021/08/12 08:24:13;;;;;;;10.13;4.95;;;;;;;27.62;66.46;-19878.50;5081723;28;20036;-71
2021/08/12 08:26:38;;;;;;;13.13;5.85;;;;;;;28.80;68.03;-19908.47;5081576;28;20480;-71
2021/08/12 08:29:03;;;;;;;10.55;5.15;;;;;;;28.97;66.28;-19912.59;5081360;28;20035;-71
2021/08/12 08:31:29;;;;;;;9.10;4.53;;;;;;;28.34;60.91;-19896.78;5081560;28;20623;-71
2021/08/12 08:33:57;;;;;;;8.90;5.28;;;;;;;28.06;66.56;-19889.59;5081151;28;20112;-71
2021/08/12 08:36:22;;;;;;;7.38;4.75;;;;;;;28.29;66.97;-19895.63;5081460;28;20044;-72
2021/08/12 08:38:48;;;;;;;8.60;4.50;;;;;;;27.51;64.43;-19875.69;5081016;28;20311;-72
2021/08/12 08:41:13;;;;;;;7.50;4.57;;;;;;;28.40;64.60;-19898.31;5080819;28;20056;-72
2021/08/12 08:43:43;;;;;;;9.27;5.03;;;;;;;28.52;64.47;-19901.41;5081122;28;20466;-72
2021/08/12 08:46:11;;;;;;;8.00;4.55;;;;;;;29.99;57.18;-19938.50;5081274;28;20019;-72
2021/08/12 08:48:40;;;;;;;7.90;4.53;;;;;;;28.41;62.88;-19898.59;5080409;28;20034;-72
2021/08/12 08:51:06;;;;;;;7.00;4.18;;;;;;;28.37;59.00;-19897.44;5080831;28;20028;-72
2021/08/12 08:53:32;;;;;;;8.00;3.88;;;;;;;28.26;62.36;-19894.72;5080622;28;20332;-72
2021/08/12 08:55:58;;;;;;;5.82;3.45;;;;;;;30.00;67.53;-19938.63;5081173;28;20256;-71
2021/08/12 08:58:25;;;;;;;8.13;4.30;;;;;;;29.96;54.95;-19937.59;5080506;28;20027;-71
2021/08/12 09:00:51;;;;;;;7.30;3.70;;;;;;;29.17;55.36;-19917.84;5077120;28;20024;-72
2021/08/12 09:03:16;;;;;;;9.07;3.65;;;;;;;30.20;59.84;-19943.75;5074665;28;20008;-71
2021/08/12 09:05:43;;;;;;;8.80;3.08;;;;;;;30.94;55.27;-19962.19;5072477;28;20037;-71
2021/08/12 09:08:08;;;;;;;7.47;3.55;;;;;;;30.47;51.03;-19950.41;5075274;28;20050;-71
2021/08/12 09:10:34;;;;;;;6.07;3.30;;;;;;;31.25;54.24;-19970.00;5079001;28;20421;-71
2021/08/12 09:13:00;;;;;;;7.75;3.50;;;;;;;29.05;52.92;-19914.63;5067860;28;20537;-71
2021/08/12 09:15:36;;;;;;;6.88;3.75;;;;;;;28.59;54.79;-19903.22;5077742;28;20040;-72
2021/08/12 09:18:03;;;;;;;6.97;3.35;;;;;;;29.12;54.50;-19916.56;5077835;28;20032;-72
2021/08/12 09:20:32;;;;;;;7.70;3.85;;;;;;;30.24;52.04;-19944.78;5077617;28;20105;-71
2021/08/12 09:23:19;;;;;;;6.32;3.30;;;;;;;30.28;51.85;-19945.81;5077856;28;20491;-71
2021/08/12 09:25:49;;;;;;;5.93;2.90;;;;;;;29.28;51.19;-19920.41;5070131;28;20040;-71
2021/08/12 09:28:40;;;;;;;7.03;3.10;;;;;;;29.18;55.13;-19917.97;5064046;28;20032;-71
2021/08/12 09:31:09;;;;;;;5.70;2.80;;;;;;;27.79;53.26;-19882.75;5074444;28;20178;-71
2021/08/12 09:33:52;;;;;;;6.55;3.15;;;;;;;28.08;54.03;-19890.09;5077166;28;20237;-71
2021/08/12 09:36:40;;;;;;;8.30;3.40;;;;;;;28.14;54.83;-19891.75;5077043;28;20430;-72
2021/08/12 09:39:19;;;;;;;6.20;3.40;;;;;;;29.14;52.93;-19917.06;5077151;28;20344;-71
2021/08/12 09:42:04;;;;;;;7.75;3.30;;;;;;;29.18;50.35;-19918.09;5076398;28;20035;-71
2021/08/12 09:44:50;;;;;;;6.80;3.33;;;;;;;29.39;54.15;-19923.22;5068840;28;20392;-71
2021/08/12 09:47:34;;;;;;;10.18;4.05;;;;;;;29.13;51.66;-19916.81;5079567;28;20036;-71
2021/08/12 09:50:00;;;;;;;7.28;3.85;;;;;;;28.80;55.05;-19908.34;5079897;28;20020;-71
2021/08/12 09:52:34;;;;;;;6.47;3.42;;;;;;;28.50;52.91;-19900.75;5079538;28;20028;-70
2021/08/12 09:55:35;;;;;;;7.57;3.20;;;;;;;29.07;53.38;-19915.28;5079703;28;20020;-71
2021/08/12 09:58:11;;;;;;;;;;;;;;;28.10;53.60;-19890.59;5057889;28;20187;-70
2021/08/12 10:00:42;;;;;;;7.03;3.75;;;;;;;28.44;57.10;-19899.22;5079933;28;19919;-70
2021/08/12 10:03:30;;;;;;;7.28;3.83;;;;;;;29.43;54.12;-19924.25;5079155;28;20085;-71
2021/08/12 10:06:01;;;;;;;7.43;3.40;;;;;;;31.38;48.97;-19973.34;5069091;28;20032;-70
2021/08/12 10:08:35;;;;;;;6.82;3.38;;;;;;;29.55;50.67;-19927.34;5079372;28;20030;-70
2021/08/12 10:11:23;;;;;;;9.38;3.40;;;;;;;31.53;50.17;-19977.16;5079507;28;20127;-70
2021/08/12 10:13:53;;;;;;;8.25;4.05;;;;;;;29.14;50.56;-19917.06;5066774;28;20032;-70
2021/08/12 10:16:19;;;;;;;7.75;3.58;;;;;;;30.03;51.97;-19939.41;5079874;28;20041;-71
2021/08/12 10:18:46;;;;;;;7.93;3.40;;;;;;;28.80;53.04;-19908.47;5079568;28;20189;-70
2021/08/12 10:21:15;;;;;;;7.25;3.65;;;;;;;29.06;55.07;-19915.03;5079428;28;20024;-70
2021/08/12 10:23:42;;;;;;;9.10;3.78;;;;;;;29.33;51.54;-19921.81;5079317;28;20044;-70
2021/08/12 10:26:08;;;;;;;6.65;3.28;;;;;;;30.37;51.52;-19947.84;5079299;28;20088;-69
2021/08/12 10:28:36;;;;;;;7.50;3.53;;;;;;;30.15;50.90;-19942.47;5079466;28;20028;-70
2021/08/12 10:31:03;;;;;;;8.07;4.22;;;;;;;29.07;51.20;-19915.16;5079423;28;20032;-69
2021/08/12 10:33:29;;;;;;;7.50;3.53;;;;;;;28.36;53.36;-19897.28;5078770;28;20284;-69
2021/08/12 10:35:57;;;;;;;6.28;3.47;;;;;;;27.90;54.43;-19885.59;5079594;28;20621;-69
2021/08/12 10:38:23;;;;;;;5.70;3.22;;;;;;;28.61;58.84;-19903.59;5078982;28;20032;-69
2021/08/12 10:40:52;;;;;;;7.07;3.08;;;;;;;29.17;54.11;-19917.84;5079124;28;20038;-70
2021/08/12 10:43:24;;;;;;;5.22;2.95;;;;;;;29.15;51.29;-19917.34;5078661;28;20020;-69
2021/08/12 10:46:02;;;;;;;6.95;3.10;;;;;;;29.10;52.84;-19915.91;5075031;28;20226;-69
2021/08/12 10:48:28;;;;;;;5.70;3.08;;;;;;;28.71;53.25;-19906.16;5071391;28;20035;-68
2021/08/12 10:51:11;;;;;;;7.85;3.50;;;;;;;29.41;52.86;-19923.75;5079237;28;20507;-69
2021/08/12 10:53:39;;;;;;;6.05;3.15;;;;;;;29.34;56.66;-19921.94;5078440;28;20027;-69
2021/08/12 10:56:15;;;;;;;6.70;3.38;;;;;;;28.46;56.22;-19899.88;5079153;28;20264;-69
2021/08/12 10:58:43;;;;;;;6.70;3.53;;;;;;;28.98;53.57;-19912.84;5078689;28;20539;-68
2021/08/12 11:01:11;;;;;;;7.40;3.33;;;;;;;28.59;56.48;-19903.22;5078272;28;20277;-68
2021/08/12 11:03:46;;;;;;;7.75;3.80;;;;;;;29.00;52.73;-19913.47;5076564;28;20040;-68
2021/08/12 11:06:30;;;;;;;6.68;2.90;;;;;;;28.23;54.76;-19894.09;5079087;28;20057;-67
2021/08/12 11:08:59;;;;;;;6.97;3.33;;;;;;;27.12;57.24;-19865.91;5076838;28;20500;-67
2021/08/12 11:11:51;;;;;;;6.80;3.38;;;;;;;27.82;59.49;-19883.66;5078181;28;20123;-68
2021/08/12 11:14:43;;;;;;;7.30;3.70;;;;;;;28.97;54.06;-19912.72;5074686;28;20419;-68
2021/08/12 11:17:09;;;;;;;8.05;3.50;;;;;;;29.91;52.42;-19936.31;5068864;28;20043;-68
2021/08/12 11:19:35;;;;;;;6.55;3.28;;;;;;;30.72;53.41;-19956.69;5078770;28;20024;-68
2021/08/12 11:22:01;;;;;;;5.88;3.20;;;;;;;29.82;52.19;-19934.00;5079036;28;20020;-69
2021/08/12 11:24:48;;;;;;;7.50;2.67;;;;;;;28.35;54.60;-19897.03;5080425;28;20047;-68